sensor_id;sensor_type;location;lat;lon;timestamp;P1;durP1;ratioP1;P2;durP2;ratioP2
2416;SDS011;1219;48.736;9.330;2023-06-10T00:02:03;9.47;;;8.63;;
2416;SDS011;1219;48.736;9.330;2023-06-10T00:04:29;9.80;;;9.03;;
2416;SDS011;1219;48.736;9.330;2023-06-10T00:06:55;10.00;;;9.30;;
2416;SDS011;1219;48.736;9.330;2023-06-10T00:09:22;9.37;;;8.67;;
2416;SDS011;1219;48.736;9.330;2023-06-10T00:11:48;8.43;;;7.80;;
2416;SDS011;1219;48.736;9.330;2023-06-10T00:14:14;9.17;;;8.50;;
2416;SDS011;1219;48.736;9.330;2023-06-10T00:16:40;9.80;;;9.10;;
2416;SDS011;1219;48.736;9.330;2023-06-10T00:19:10;9.70;;;9.00;;
2416;SDS011;1219;48.736;9.330;2023-06-10T00:21:38;8.90;;;8.30;;
2416;SDS011;1219;48.736;9.330;2023-06-10T00:24:05;9.53;;;8.70;;
2416;SDS011;1219;48.736;9.330;2023-06-10T00:26:32;8.77;;;8.07;;
2416;SDS011;1219;48.736;9.330;2023-06-10T00:28:58;8.30;;;7.70;;
2416;SDS011;1219;48.736;9.330;2023-06-10T00:31:24;8.67;;;7.97;;
2416;SDS011;1219;48.736;9.330;2023-06-10T00:33:53;8.27;;;7.60;;
2416;SDS011;1219;48.736;9.330;2023-06-10T00:36:19;8.17;;;7.37;;
2416;SDS011;1219;48.736;9.330;2023-06-10T00:38:45;9.27;;;8.57;;
2416;SDS011;1219;48.736;9.330;2023-06-10T00:41:11;8.07;;;7.43;;
2416;SDS011;1219;48.736;9.330;2023-06-10T00:43:37;8.00;;;7.30;;
2416;SDS011;1219;48.736;9.330;2023-06-10T00:46:03;8.23;;;7.63;;
2416;SDS011;1219;48.736;9.330;2023-06-10T00:48:29;8.13;;;7.53;;
2416;SDS011;1219;48.736;9.330;2023-06-10T00:50:55;8.83;;;8.03;;
2416;SDS011;1219;48.736;9.330;2023-06-10T00:53:22;8.87;;;8.17;;
2416;SDS011;1219;48.736;9.330;2023-06-10T00:55:48;7.27;;;6.87;;
2416;SDS011;1219;48.736;9.330;2023-06-10T00:58:14;8.20;;;7.53;;
2416;SDS011;1219;48.736;9.330;2023-06-10T01:00:40;8.70;;;8.10;;
2416;SDS011;1219;48.736;9.330;2023-06-10T01:03:06;8.80;;;8.00;;
2416;SDS011;1219;48.736;9.330;2023-06-10T01:05:34;8.97;;;8.17;;
2416;SDS011;1219;48.736;9.330;2023-06-10T01:08:03;8.17;;;7.50;;
2416;SDS011;1219;48.736;9.330;2023-06-10T01:12:59;8.43;;;7.73;;
2416;SDS011;1219;48.736;9.330;2023-06-10T01:15:28;8.73;;;8.13;;
2416;SDS011;1219;48.736;9.330;2023-06-10T01:18:05;8.87;;;8.20;;
2416;SDS011;1219;48.736;9.330;2023-06-10T01:20:33;7.90;;;7.30;;
2416;SDS011;1219;48.736;9.330;2023-06-10T01:23:01;8.17;;;7.67;;
2416;SDS011;1219;48.736;9.330;2023-06-10T01:25:28;8.37;;;7.67;;
2416;SDS011;1219;48.736;9.330;2023-06-10T01:28:17;8.07;;;7.47;;
2416;SDS011;1219;48.736;9.330;2023-06-10T01:33:13;7.77;;;7.13;;
2416;SDS011;1219;48.736;9.330;2023-06-10T01:35:44;8.00;;;7.40;;
2416;SDS011;1219;48.736;9.330;2023-06-10T01:38:11;8.20;;;7.47;;
2416;SDS011;1219;48.736;9.330;2023-06-10T01:40:38;7.80;;;7.20;;
2416;SDS011;1219;48.736;9.330;2023-06-10T01:43:04;8.13;;;7.43;;
2416;SDS011;1219;48.736;9.330;2023-06-10T01:45:30;7.60;;;7.10;;
2416;SDS011;1219;48.736;9.330;2023-06-10T01:47:56;7.90;;;7.30;;
2416;SDS011;1219;48.736;9.330;2023-06-10T01:50:22;8.60;;;7.97;;
2416;SDS011;1219;48.736;9.330;2023-06-10T01:52:48;7.37;;;6.77;;
2416;SDS011;1219;48.736;9.330;2023-06-10T01:55:14;7.70;;;7.20;;
2416;SDS011;1219;48.736;9.330;2023-06-10T01:57:40;7.50;;;6.90;;
2416;SDS011;1219;48.736;9.330;2023-06-10T02:00:06;8.20;;;7.60;;
2416;SDS011;1219;48.736;9.330;2023-06-10T02:02:33;8.47;;;7.70;;
2416;SDS011;1219;48.736;9.330;2023-06-10T02:04:59;7.00;;;6.50;;
2416;SDS011;1219;48.736;9.330;2023-06-10T02:07:25;6.63;;;6.13;;
2416;SDS011;1219;48.736;9.330;2023-06-10T02:09:51;7.87;;;7.20;;
2416;SDS011;1219;48.736;9.330;2023-06-10T02:12:17;8.10;;;7.50;;
2416;SDS011;1219;48.736;9.330;2023-06-10T02:14:43;7.57;;;6.97;;
2416;SDS011;1219;48.736;9.330;2023-06-10T02:17:08;7.27;;;6.73;;
2416;SDS011;1219;48.736;9.330;2023-06-10T02:19:38;7.53;;;7.03;;
2416;SDS011;1219;48.736;9.330;2023-06-10T02:22:07;7.60;;;6.93;;
2416;SDS011;1219;48.736;9.330;2023-06-10T02:24:33;7.73;;;7.20;;
2416;SDS011;1219;48.736;9.330;2023-06-10T02:26:59;8.80;;;6.70;;
2416;SDS011;1219;48.736;9.330;2023-06-10T02:29:25;7.47;;;6.97;;
2416;SDS011;1219;48.736;9.330;2023-06-10T02:31:51;7.23;;;6.73;;
2416;SDS011;1219;48.736;9.330;2023-06-10T02:34:17;11.53;;;6.80;;
2416;SDS011;1219;48.736;9.330;2023-06-10T02:36:43;7.53;;;7.00;;
2416;SDS011;1219;48.736;9.330;2023-06-10T02:39:09;9.20;;;8.40;;
2416;SDS011;1219;48.736;9.330;2023-06-10T02:41:35;7.97;;;7.47;;
2416;SDS011;1219;48.736;9.330;2023-06-10T02:44:02;7.27;;;6.77;;
2416;SDS011;1219;48.736;9.330;2023-06-10T02:46:28;7.53;;;6.93;;
2416;SDS011;1219;48.736;9.330;2023-06-10T02:48:54;8.60;;;7.93;;
2416;SDS011;1219;48.736;9.330;2023-06-10T02:51:20;7.50;;;6.90;;
2416;SDS011;1219;48.736;9.330;2023-06-10T02:53:46;7.87;;;7.20;;
2416;SDS011;1219;48.736;9.330;2023-06-10T02:56:13;8.00;;;7.30;;
2416;SDS011;1219;48.736;9.330;2023-06-10T02:58:39;7.83;;;7.23;;
2416;SDS011;1219;48.736;9.330;2023-06-10T03:01:06;8.13;;;7.43;;
2416;SDS011;1219;48.736;9.330;2023-06-10T03:03:34;7.20;;;6.60;;
2416;SDS011;1219;48.736;9.330;2023-06-10T03:06:01;7.80;;;7.20;;
2416;SDS011;1219;48.736;9.330;2023-06-10T03:08:28;10.03;;;9.10;;
2416;SDS011;1219;48.736;9.330;2023-06-10T03:10:54;8.43;;;7.63;;
2416;SDS011;1219;48.736;9.330;2023-06-10T03:13:20;8.57;;;7.90;;
2416;SDS011;1219;48.736;9.330;2023-06-10T03:15:46;9.90;;;9.07;;
2416;SDS011;1219;48.736;9.330;2023-06-10T03:18:12;8.50;;;7.80;;
2416;SDS011;1219;48.736;9.330;2023-06-10T03:20:38;8.27;;;7.67;;
2416;SDS011;1219;48.736;9.330;2023-06-10T03:23:04;8.13;;;7.53;;
2416;SDS011;1219;48.736;9.330;2023-06-10T03:25:34;9.30;;;7.80;;
2416;SDS011;1219;48.736;9.330;2023-06-10T03:28:00;9.10;;;8.30;;
2416;SDS011;1219;48.736;9.330;2023-06-10T03:30:27;9.33;;;8.53;;
2416;SDS011;1219;48.736;9.330;2023-06-10T03:32:53;9.07;;;8.30;;
2416;SDS011;1219;48.736;9.330;2023-06-10T03:35:19;8.87;;;8.17;;
2416;SDS011;1219;48.736;9.330;2023-06-10T03:37:45;8.57;;;7.87;;
2416;SDS011;1219;48.736;9.330;2023-06-10T03:40:11;8.80;;;8.20;;
2416;SDS011;1219;48.736;9.330;2023-06-10T03:42:37;8.97;;;7.50;;
2416;SDS011;1219;48.736;9.330;2023-06-10T03:45:03;8.10;;;7.40;;
2416;SDS011;1219;48.736;9.330;2023-06-10T03:47:34;8.87;;;8.17;;
2416;SDS011;1219;48.736;9.330;2023-06-10T03:50:01;7.43;;;6.83;;
2416;SDS011;1219;48.736;9.330;2023-06-10T03:52:27;9.30;;;8.40;;
2416;SDS011;1219;48.736;9.330;2023-06-10T03:54:52;8.83;;;7.90;;
2416;SDS011;1219;48.736;9.330;2023-06-10T03:57:18;7.33;;;6.80;;
2416;SDS011;1219;48.736;9.330;2023-06-10T03:59:44;8.20;;;7.50;;
2416;SDS011;1219;48.736;9.330;2023-06-10T04:02:10;7.60;;;6.90;;
2416;SDS011;1219;48.736;9.330;2023-06-10T04:04:36;8.00;;;7.30;;
2416;SDS011;1219;48.736;9.330;2023-06-10T04:07:03;7.67;;;7.07;;
2416;SDS011;1219;48.736;9.330;2023-06-10T04:09:30;7.30;;;6.60;;
2416;SDS011;1219;48.736;9.330;2023-06-10T04:11:55;7.60;;;6.90;;
2416;SDS011;1219;48.736;9.330;2023-06-10T04:14:21;7.10;;;6.57;;
2416;SDS011;1219;48.736;9.330;2023-06-10T04:16:47;7.60;;;6.90;;
2416;SDS011;1219;48.736;9.330;2023-06-10T04:19:13;6.33;;;5.83;;
2416;SDS011;1219;48.736;9.330;2023-06-10T04:21:40;6.60;;;6.17;;
2416;SDS011;1219;48.736;9.330;2023-06-10T04:24:06;6.70;;;6.13;;
2416;SDS011;1219;48.736;9.330;2023-06-10T04:26:32;6.70;;;6.10;;
2416;SDS011;1219;48.736;9.330;2023-06-10T04:28:58;6.47;;;6.07;;
2416;SDS011;1219;48.736;9.330;2023-06-10T04:31:24;7.40;;;6.60;;
2416;SDS011;1219;48.736;9.330;2023-06-10T04:33:50;6.80;;;6.20;;
2416;SDS011;1219;48.736;9.330;2023-06-10T04:36:16;6.60;;;6.00;;
2416;SDS011;1219;48.736;9.330;2023-06-10T04:38:42;6.43;;;5.93;;
2416;SDS011;1219;48.736;9.330;2023-06-10T04:41:08;6.97;;;6.37;;
2416;SDS011;1219;48.736;9.330;2023-06-10T04:43:34;8.23;;;7.53;;
2416;SDS011;1219;48.736;9.330;2023-06-10T04:46:00;7.50;;;7.00;;
2416;SDS011;1219;48.736;9.330;2023-06-10T04:48:26;7.63;;;7.00;;
2416;SDS011;1219;48.736;9.330;2023-06-10T04:50:52;7.10;;;6.53;;
2416;SDS011;1219;48.736;9.330;2023-06-10T04:53:18;7.27;;;6.67;;
2416;SDS011;1219;48.736;9.330;2023-06-10T04:55:45;8.53;;;7.83;;
2416;SDS011;1219;48.736;9.330;2023-06-10T04:58:11;7.30;;;6.70;;
2416;SDS011;1219;48.736;9.330;2023-06-10T05:00:37;8.03;;;7.40;;
2416;SDS011;1219;48.736;9.330;2023-06-10T05:03:03;8.37;;;7.67;;
2416;SDS011;1219;48.736;9.330;2023-06-10T05:05:29;8.03;;;7.50;;
2416;SDS011;1219;48.736;9.330;2023-06-10T05:07:55;9.40;;;8.60;;
2416;SDS011;1219;48.736;9.330;2023-06-10T05:10:22;9.77;;;8.93;;
2416;SDS011;1219;48.736;9.330;2023-06-10T05:12:47;9.70;;;8.90;;
2416;SDS011;1219;48.736;9.330;2023-06-10T05:15:13;9.80;;;9.00;;
2416;SDS011;1219;48.736;9.330;2023-06-10T05:17:40;10.13;;;9.33;;
2416;SDS011;1219;48.736;9.330;2023-06-10T05:20:06;10.70;;;9.73;;
2416;SDS011;1219;48.736;9.330;2023-06-10T05:22:32;9.93;;;9.03;;
2416;SDS011;1219;48.736;9.330;2023-06-10T05:24:59;9.83;;;9.03;;
2416;SDS011;1219;48.736;9.330;2023-06-10T05:27:25;8.17;;;7.47;;
2416;SDS011;1219;48.736;9.330;2023-06-10T05:29:51;10.47;;;9.43;;
2416;SDS011;1219;48.736;9.330;2023-06-10T05:32:17;9.77;;;8.90;;
2416;SDS011;1219;48.736;9.330;2023-06-10T05:34:43;11.67;;;9.60;;
2416;SDS011;1219;48.736;9.330;2023-06-10T05:37:09;10.30;;;9.40;;
2416;SDS011;1219;48.736;9.330;2023-06-10T05:39:36;10.27;;;9.37;;
2416;SDS011;1219;48.736;9.330;2023-06-10T05:42:03;11.00;;;10.13;;
2416;SDS011;1219;48.736;9.330;2023-06-10T05:44:29;9.90;;;9.00;;
2416;SDS011;1219;48.736;9.330;2023-06-10T05:46:55;10.30;;;9.40;;
2416;SDS011;1219;48.736;9.330;2023-06-10T05:49:21;11.43;;;10.00;;
2416;SDS011;1219;48.736;9.330;2023-06-10T05:51:47;10.27;;;9.37;;
2416;SDS011;1219;48.736;9.330;2023-06-10T05:54:12;10.30;;;9.30;;
2416;SDS011;1219;48.736;9.330;2023-06-10T05:56:38;10.97;;;9.87;;
2416;SDS011;1219;48.736;9.330;2023-06-10T05:59:04;9.60;;;8.87;;
2416;SDS011;1219;48.736;9.330;2023-06-10T06:01:30;9.03;;;8.23;;
2416;SDS011;1219;48.736;9.330;2023-06-10T06:03:56;9.30;;;8.47;;
2416;SDS011;1219;48.736;9.330;2023-06-10T06:06:22;8.00;;;7.50;;
2416;SDS011;1219;48.736;9.330;2023-06-10T06:08:48;8.13;;;7.50;;
2416;SDS011;1219;48.736;9.330;2023-06-10T06:11:14;9.13;;;8.00;;
2416;SDS011;1219;48.736;9.330;2023-06-10T06:13:40;8.40;;;7.70;;
2416;SDS011;1219;48.736;9.330;2023-06-10T06:16:07;8.47;;;7.73;;
2416;SDS011;1219;48.736;9.330;2023-06-10T06:18:33;9.50;;;8.80;;
2416;SDS011;1219;48.736;9.330;2023-06-10T06:20:59;8.50;;;7.90;;
2416;SDS011;1219;48.736;9.330;2023-06-10T06:23:25;8.77;;;8.07;;
2416;SDS011;1219;48.736;9.330;2023-06-10T06:25:51;8.83;;;8.13;;
2416;SDS011;1219;48.736;9.330;2023-06-10T06:28:17;7.90;;;7.40;;
2416;SDS011;1219;48.736;9.330;2023-06-10T06:30:45;8.27;;;7.67;;
2416;SDS011;1219;48.736;9.330;2023-06-10T06:33:11;8.27;;;7.67;;
2416;SDS011;1219;48.736;9.330;2023-06-10T06:35:37;7.67;;;7.10;;
2416;SDS011;1219;48.736;9.330;2023-06-10T06:38:03;9.07;;;7.53;;
2416;SDS011;1219;48.736;9.330;2023-06-10T06:40:29;7.83;;;7.07;;
2416;SDS011;1219;48.736;9.330;2023-06-10T06:42:55;7.43;;;6.83;;
2416;SDS011;1219;48.736;9.330;2023-06-10T06:45:21;7.40;;;6.90;;
2416;SDS011;1219;48.736;9.330;2023-06-10T06:47:47;6.73;;;6.23;;
2416;SDS011;1219;48.736;9.330;2023-06-10T06:50:13;7.13;;;6.63;;
2416;SDS011;1219;48.736;9.330;2023-06-10T06:52:40;6.23;;;5.87;;
2416;SDS011;1219;48.736;9.330;2023-06-10T06:55:06;7.20;;;6.47;;
2416;SDS011;1219;48.736;9.330;2023-06-10T06:57:32;7.40;;;6.80;;
2416;SDS011;1219;48.736;9.330;2023-06-10T06:59:58;7.43;;;6.90;;
2416;SDS011;1219;48.736;9.330;2023-06-10T07:02:24;6.80;;;6.23;;
2416;SDS011;1219;48.736;9.330;2023-06-10T07:04:50;7.83;;;7.23;;
2416;SDS011;1219;48.736;9.330;2023-06-10T07:07:16;7.50;;;6.90;;
2416;SDS011;1219;48.736;9.330;2023-06-10T07:09:42;7.60;;;7.03;;
2416;SDS011;1219;48.736;9.330;2023-06-10T07:12:08;6.83;;;6.13;;
2416;SDS011;1219;48.736;9.330;2023-06-10T07:14:34;6.63;;;6.03;;
2416;SDS011;1219;48.736;9.330;2023-06-10T07:17:00;6.93;;;6.43;;
2416;SDS011;1219;48.736;9.330;2023-06-10T07:19:26;6.80;;;5.73;;
2416;SDS011;1219;48.736;9.330;2023-06-10T07:21:52;7.50;;;6.87;;
2416;SDS011;1219;48.736;9.330;2023-06-10T07:24:18;6.27;;;5.87;;
2416;SDS011;1219;48.736;9.330;2023-06-10T07:26:45;6.73;;;6.20;;
2416;SDS011;1219;48.736;9.330;2023-06-10T07:29:11;5.63;;;5.23;;
2416;SDS011;1219;48.736;9.330;2023-06-10T07:31:37;6.53;;;5.70;;
2416;SDS011;1219;48.736;9.330;2023-06-10T07:34:03;5.63;;;5.23;;
2416;SDS011;1219;48.736;9.330;2023-06-10T07:36:29;5.73;;;5.33;;
2416;SDS011;1219;48.736;9.330;2023-06-10T07:38:55;6.40;;;6.00;;
2416;SDS011;1219;48.736;9.330;2023-06-10T07:41:22;6.23;;;5.73;;
2416;SDS011;1219;48.736;9.330;2023-06-10T07:43:49;6.90;;;6.33;;
2416;SDS011;1219;48.736;9.330;2023-06-10T07:46:19;5.43;;;5.03;;
2416;SDS011;1219;48.736;9.330;2023-06-10T07:48:45;5.70;;;5.30;;
2416;SDS011;1219;48.736;9.330;2023-06-10T07:51:11;6.47;;;4.80;;
2416;SDS011;1219;48.736;9.330;2023-06-10T07:53:37;6.63;;;6.03;;
2416;SDS011;1219;48.736;9.330;2023-06-10T07:56:03;6.00;;;5.40;;
2416;SDS011;1219;48.736;9.330;2023-06-10T07:58:29;5.40;;;5.00;;
2416;SDS011;1219;48.736;9.330;2023-06-10T08:00:55;5.70;;;5.30;;
2416;SDS011;1219;48.736;9.330;2023-06-10T08:03:20;5.60;;;5.10;;
2416;SDS011;1219;48.736;9.330;2023-06-10T08:05:47;5.10;;;4.70;;
2416;SDS011;1219;48.736;9.330;2023-06-10T08:08:13;5.83;;;5.30;;
2416;SDS011;1219;48.736;9.330;2023-06-10T08:10:39;5.77;;;5.37;;
2416;SDS011;1219;48.736;9.330;2023-06-10T08:13:05;5.40;;;5.10;;
2416;SDS011;1219;48.736;9.330;2023-06-10T08:15:31;5.87;;;5.47;;
2416;SDS011;1219;48.736;9.330;2023-06-10T08:17:57;5.90;;;5.40;;
2416;SDS011;1219;48.736;9.330;2023-06-10T08:20:23;6.20;;;5.80;;
2416;SDS011;1219;48.736;9.330;2023-06-10T08:22:48;6.53;;;6.13;;
2416;SDS011;1219;48.736;9.330;2023-06-10T08:25:15;7.67;;;6.20;;
2416;SDS011;1219;48.736;9.330;2023-06-10T08:27:41;5.30;;;5.00;;
2416;SDS011;1219;48.736;9.330;2023-06-10T08:30:07;7.23;;;6.63;;
2416;SDS011;1219;48.736;9.330;2023-06-10T08:32:35;6.17;;;5.80;;
2416;SDS011;1219;48.736;9.330;2023-06-10T08:35:00;5.93;;;5.63;;
2416;SDS011;1219;48.736;9.330;2023-06-10T08:37:26;5.90;;;5.50;;
2416;SDS011;1219;48.736;9.330;2023-06-10T08:39:52;6.90;;;6.40;;
2416;SDS011;1219;48.736;9.330;2023-06-10T08:44:48;6.03;;;5.63;;
2416;SDS011;1219;48.736;9.330;2023-06-10T08:47:16;5.47;;;5.13;;
2416;SDS011;1219;48.736;9.330;2023-06-10T08:49:46;5.67;;;5.27;;
2416;SDS011;1219;48.736;9.330;2023-06-10T08:52:17;5.80;;;5.30;;
2416;SDS011;1219;48.736;9.330;2023-06-10T08:54:48;5.30;;;4.90;;
2416;SDS011;1219;48.736;9.330;2023-06-10T08:57:15;4.77;;;4.53;;
2416;SDS011;1219;48.736;9.330;2023-06-10T08:59:41;5.20;;;4.80;;
2416;SDS011;1219;48.736;9.330;2023-06-10T09:02:08;5.00;;;4.67;;
2416;SDS011;1219;48.736;9.330;2023-06-10T09:04:34;6.17;;;5.73;;
2416;SDS011;1219;48.736;9.330;2023-06-10T09:07:00;5.93;;;5.13;;
2416;SDS011;1219;48.736;9.330;2023-06-10T09:09:27;5.27;;;4.97;;
2416;SDS011;1219;48.736;9.330;2023-06-10T09:11:55;5.37;;;4.87;;
2416;SDS011;1219;48.736;9.330;2023-06-10T09:14:21;5.10;;;4.80;;
2416;SDS011;1219;48.736;9.330;2023-06-10T09:16:48;4.43;;;4.23;;
2416;SDS011;1219;48.736;9.330;2023-06-10T09:19:15;4.33;;;4.13;;
2416;SDS011;1219;48.736;9.330;2023-06-10T09:21:42;7.07;;;4.60;;
2416;SDS011;1219;48.736;9.330;2023-06-10T09:24:08;5.47;;;5.07;;
2416;SDS011;1219;48.736;9.330;2023-06-10T09:26:34;4.20;;;3.93;;
2416;SDS011;1219;48.736;9.330;2023-06-10T09:29:06;5.73;;;5.43;;
2416;SDS011;1219;48.736;9.330;2023-06-10T09:31:37;5.10;;;4.67;;
2416;SDS011;1219;48.736;9.330;2023-06-10T09:34:07;5.13;;;4.70;;
2416;SDS011;1219;48.736;9.330;2023-06-10T09:36:33;5.80;;;5.30;;
2416;SDS011;1219;48.736;9.330;2023-06-10T09:38:59;5.43;;;5.03;;
2416;SDS011;1219;48.736;9.330;2023-06-10T09:41:32;5.23;;;4.83;;
2416;SDS011;1219;48.736;9.330;2023-06-10T09:43:59;7.20;;;6.70;;
2416;SDS011;1219;48.736;9.330;2023-06-10T09:46:25;5.03;;;4.83;;
2416;SDS011;1219;48.736;9.330;2023-06-10T09:48:56;4.90;;;4.60;;
2416;SDS011;1219;48.736;9.330;2023-06-10T09:51:23;4.97;;;4.67;;
2416;SDS011;1219;48.736;9.330;2023-06-10T09:53:52;5.10;;;4.80;;
2416;SDS011;1219;48.736;9.330;2023-06-10T09:56:18;4.23;;;4.00;;
2416;SDS011;1219;48.736;9.330;2023-06-10T09:58:45;4.77;;;4.47;;
2416;SDS011;1219;48.736;9.330;2023-06-10T10:01:13;4.53;;;4.33;;
2416;SDS011;1219;48.736;9.330;2023-06-10T10:03:45;4.37;;;4.17;;
2416;SDS011;1219;48.736;9.330;2023-06-10T10:06:12;5.73;;;5.17;;
2416;SDS011;1219;48.736;9.330;2023-06-10T10:08:39;5.80;;;5.40;;
2416;SDS011;1219;48.736;9.330;2023-06-10T10:11:05;5.07;;;4.77;;
2416;SDS011;1219;48.736;9.330;2023-06-10T10:13:32;5.43;;;5.03;;
2416;SDS011;1219;48.736;9.330;2023-06-10T10:16:00;5.13;;;4.83;;
2416;SDS011;1219;48.736;9.330;2023-06-10T10:18:28;5.67;;;5.27;;
2416;SDS011;1219;48.736;9.330;2023-06-10T10:20:55;4.60;;;4.37;;
2416;SDS011;1219;48.736;9.330;2023-06-10T10:23:24;5.67;;;5.27;;
2416;SDS011;1219;48.736;9.330;2023-06-10T10:25:52;5.30;;;4.90;;
2416;SDS011;1219;48.736;9.330;2023-06-10T10:28:20;4.43;;;4.13;;
2416;SDS011;1219;48.736;9.330;2023-06-10T10:30:49;3.97;;;3.70;;
2416;SDS011;1219;48.736;9.330;2023-06-10T10:33:18;5.77;;;4.33;;
2416;SDS011;1219;48.736;9.330;2023-06-10T10:35:45;4.37;;;4.17;;
2416;SDS011;1219;48.736;9.330;2023-06-10T10:38:11;4.10;;;3.80;;
2416;SDS011;1219;48.736;9.330;2023-06-10T10:40:37;4.17;;;3.97;;
2416;SDS011;1219;48.736;9.330;2023-06-10T10:43:04;3.33;;;3.13;;
2416;SDS011;1219;48.736;9.330;2023-06-10T10:45:31;4.33;;;4.03;;
2416;SDS011;1219;48.736;9.330;2023-06-10T10:47:58;5.10;;;3.67;;
2416;SDS011;1219;48.736;9.330;2023-06-10T10:50:30;3.63;;;3.33;;
2416;SDS011;1219;48.736;9.330;2023-06-10T10:53:00;3.63;;;3.33;;
2416;SDS011;1219;48.736;9.330;2023-06-10T10:55:27;5.23;;;3.53;;
2416;SDS011;1219;48.736;9.330;2023-06-10T10:58:02;4.20;;;3.77;;
2416;SDS011;1219;48.736;9.330;2023-06-10T11:02:57;3.23;;;3.03;;
2416;SDS011;1219;48.736;9.330;2023-06-10T11:08:02;4.60;;;3.50;;
2416;SDS011;1219;48.736;9.330;2023-06-10T11:10:29;3.50;;;3.30;;
2416;SDS011;1219;48.736;9.330;2023-06-10T11:12:56;3.40;;;3.20;;
2416;SDS011;1219;48.736;9.330;2023-06-10T11:15:26;2.70;;;2.60;;
2416;SDS011;1219;48.736;9.330;2023-06-10T11:28:41;3.50;;;3.30;;
2416;SDS011;1219;48.736;9.330;2023-06-10T11:31:08;3.50;;;3.30;;
2416;SDS011;1219;48.736;9.330;2023-06-10T11:33:36;2.90;;;2.80;;
2416;SDS011;1219;48.736;9.330;2023-06-10T11:36:06;2.80;;;2.60;;
2416;SDS011;1219;48.736;9.330;2023-06-10T11:38:32;3.20;;;3.00;;
2416;SDS011;1219;48.736;9.330;2023-06-10T11:40:58;3.20;;;3.00;;
2416;SDS011;1219;48.736;9.330;2023-06-10T11:43:24;3.30;;;3.00;;
2416;SDS011;1219;48.736;9.330;2023-06-10T11:45:53;2.92;;;2.72;;
2416;SDS011;1219;48.736;9.330;2023-06-10T11:48:20;3.10;;;2.90;;
2416;SDS011;1219;48.736;9.330;2023-06-10T11:50:46;2.78;;;2.60;;
2416;SDS011;1219;48.736;9.330;2023-06-10T11:53:12;3.03;;;2.83;;
2416;SDS011;1219;48.736;9.330;2023-06-10T11:55:42;3.60;;;3.30;;
2416;SDS011;1219;48.736;9.330;2023-06-10T11:58:14;3.87;;;3.67;;
2416;SDS011;1219;48.736;9.330;2023-06-10T12:00:45;3.70;;;3.13;;
2416;SDS011;1219;48.736;9.330;2023-06-10T12:03:11;3.40;;;3.10;;
2416;SDS011;1219;48.736;9.330;2023-06-10T12:05:37;4.40;;;3.63;;
2416;SDS011;1219;48.736;9.330;2023-06-10T12:08:09;3.97;;;3.67;;
2416;SDS011;1219;48.736;9.330;2023-06-10T12:10:39;5.40;;;3.23;;
2416;SDS011;1219;48.736;9.330;2023-06-10T12:13:06;4.50;;;3.40;;
2416;SDS011;1219;48.736;9.330;2023-06-10T12:15:32;4.20;;;4.00;;
2416;SDS011;1219;48.736;9.330;2023-06-10T12:17:58;4.00;;;3.80;;
2416;SDS011;1219;48.736;9.330;2023-06-10T12:20:25;4.00;;;3.80;;
2416;SDS011;1219;48.736;9.330;2023-06-10T12:22:52;3.70;;;3.50;;
2416;SDS011;1219;48.736;9.330;2023-06-10T12:25:23;4.07;;;3.77;;
2416;SDS011;1219;48.736;9.330;2023-06-10T12:27:51;4.00;;;3.50;;
2416;SDS011;1219;48.736;9.330;2023-06-10T12:30:20;3.90;;;2.97;;
2416;SDS011;1219;48.736;9.330;2023-06-10T12:32:47;3.38;;;2.80;;
2416;SDS011;1219;48.736;9.330;2023-06-10T12:35:13;3.38;;;3.17;;
2416;SDS011;1219;48.736;9.330;2023-06-10T12:37:40;2.60;;;2.40;;
2416;SDS011;1219;48.736;9.330;2023-06-10T12:40:06;6.32;;;3.38;;
2416;SDS011;1219;48.736;9.330;2023-06-10T12:42:33;3.15;;;2.90;;
2416;SDS011;1219;48.736;9.330;2023-06-10T12:45:01;4.25;;;3.20;;
2416;SDS011;1219;48.736;9.330;2023-06-10T12:47:30;3.28;;;2.97;;
2416;SDS011;1219;48.736;9.330;2023-06-10T12:49:57;2.55;;;2.42;;
2416;SDS011;1219;48.736;9.330;2023-06-10T12:52:24;3.05;;;2.75;;
2416;SDS011;1219;48.736;9.330;2023-06-10T12:54:50;2.90;;;2.70;;
2416;SDS011;1219;48.736;9.330;2023-06-10T12:57:17;2.72;;;2.53;;
2416;SDS011;1219;48.736;9.330;2023-06-10T12:59:43;2.55;;;2.45;;
2416;SDS011;1219;48.736;9.330;2023-06-10T13:02:17;2.55;;;2.35;;
2416;SDS011;1219;48.736;9.330;2023-06-10T13:04:43;2.65;;;2.55;;
2416;SDS011;1219;48.736;9.330;2023-06-10T13:07:09;2.67;;;2.58;;
2416;SDS011;1219;48.736;9.330;2023-06-10T13:09:35;3.17;;;2.67;;
2416;SDS011;1219;48.736;9.330;2023-06-10T13:12:01;2.88;;;2.67;;
2416;SDS011;1219;48.736;9.330;2023-06-10T13:14:27;2.75;;;2.55;;
2416;SDS011;1219;48.736;9.330;2023-06-10T13:16:54;2.40;;;2.30;;
2416;SDS011;1219;48.736;9.330;2023-06-10T13:19:20;2.58;;;2.40;;
2416;SDS011;1219;48.736;9.330;2023-06-10T13:21:46;2.80;;;2.38;;
2416;SDS011;1219;48.736;9.330;2023-06-10T13:24:12;2.50;;;2.30;;
2416;SDS011;1219;48.736;9.330;2023-06-10T13:26:38;2.50;;;2.20;;
2416;SDS011;1219;48.736;9.330;2023-06-10T13:29:05;2.47;;;2.38;;
2416;SDS011;1219;48.736;9.330;2023-06-10T13:31:32;3.33;;;3.08;;
2416;SDS011;1219;48.736;9.330;2023-06-10T13:33:58;2.80;;;2.60;;
2416;SDS011;1219;48.736;9.330;2023-06-10T13:36:24;2.90;;;2.70;;
2416;SDS011;1219;48.736;9.330;2023-06-10T13:38:50;2.60;;;2.40;;
2416;SDS011;1219;48.736;9.330;2023-06-10T13:41:16;2.50;;;2.40;;
2416;SDS011;1219;48.736;9.330;2023-06-10T13:43:42;2.60;;;2.40;;
2416;SDS011;1219;48.736;9.330;2023-06-10T13:46:08;3.25;;;3.05;;
2416;SDS011;1219;48.736;9.330;2023-06-10T13:48:34;2.67;;;2.47;;
2416;SDS011;1219;48.736;9.330;2023-06-10T13:51:00;2.67;;;2.58;;
2416;SDS011;1219;48.736;9.330;2023-06-10T13:53:26;2.80;;;2.60;;
2416;SDS011;1219;48.736;9.330;2023-06-10T13:55:52;2.40;;;2.30;;
2416;SDS011;1219;48.736;9.330;2023-06-10T13:58:18;2.55;;;2.45;;
2416;SDS011;1219;48.736;9.330;2023-06-10T14:00:44;3.25;;;2.95;;
2416;SDS011;1219;48.736;9.330;2023-06-10T14:03:11;3.53;;;3.23;;
2416;SDS011;1219;48.736;9.330;2023-06-10T14:05:37;4.07;;;3.77;;
2416;SDS011;1219;48.736;9.330;2023-06-10T14:08:04;3.50;;;3.30;;
2416;SDS011;1219;48.736;9.330;2023-06-10T14:10:30;2.90;;;2.70;;
2416;SDS011;1219;48.736;9.330;2023-06-10T14:12:56;3.30;;;3.05;;
2416;SDS011;1219;48.736;9.330;2023-06-10T14:15:22;2.85;;;2.70;;
2416;SDS011;1219;48.736;9.330;2023-06-10T14:17:47;3.50;;;3.30;;
2416;SDS011;1219;48.736;9.330;2023-06-10T14:20:13;3.47;;;3.27;;
2416;SDS011;1219;48.736;9.330;2023-06-10T14:22:39;4.57;;;2.57;;
2416;SDS011;1219;48.736;9.330;2023-06-10T14:25:05;3.50;;;3.20;;
2416;SDS011;1219;48.736;9.330;2023-06-10T14:27:31;3.90;;;3.70;;
2416;SDS011;1219;48.736;9.330;2023-06-10T14:29:57;3.50;;;3.30;;
2416;SDS011;1219;48.736;9.330;2023-06-10T14:32:23;4.33;;;4.03;;
2416;SDS011;1219;48.736;9.330;2023-06-10T14:34:49;4.20;;;3.80;;
2416;SDS011;1219;48.736;9.330;2023-06-10T14:37:15;4.97;;;4.60;;
2416;SDS011;1219;48.736;9.330;2023-06-10T14:39:41;4.20;;;3.90;;
2416;SDS011;1219;48.736;9.330;2023-06-10T14:42:08;4.13;;;3.93;;
2416;SDS011;1219;48.736;9.330;2023-06-10T14:44:34;4.23;;;3.93;;
2416;SDS011;1219;48.736;9.330;2023-06-10T14:46:59;4.07;;;3.87;;
2416;SDS011;1219;48.736;9.330;2023-06-10T14:49:25;4.67;;;4.20;;
2416;SDS011;1219;48.736;9.330;2023-06-10T14:51:51;3.60;;;3.40;;
2416;SDS011;1219;48.736;9.330;2023-06-10T14:54:17;4.77;;;3.10;;
2416;SDS011;1219;48.736;9.330;2023-06-10T14:56:43;4.57;;;2.88;;
2416;SDS011;1219;48.736;9.330;2023-06-10T14:59:09;3.50;;;3.20;;
2416;SDS011;1219;48.736;9.330;2023-06-10T15:01:35;3.08;;;2.88;;
2416;SDS011;1219;48.736;9.330;2023-06-10T15:04:01;3.50;;;3.20;;
2416;SDS011;1219;48.736;9.330;2023-06-10T15:06:27;3.40;;;3.20;;
2416;SDS011;1219;48.736;9.330;2023-06-10T15:08:53;3.55;;;3.35;;
2416;SDS011;1219;48.736;9.330;2023-06-10T15:11:19;3.33;;;3.13;;
2416;SDS011;1219;48.736;9.330;2023-06-10T15:13:46;3.17;;;2.97;;
2416;SDS011;1219;48.736;9.330;2023-06-10T15:16:11;2.78;;;2.58;;
2416;SDS011;1219;48.736;9.330;2023-06-10T15:18:37;4.35;;;4.05;;
2416;SDS011;1219;48.736;9.330;2023-06-10T15:21:03;3.58;;;3.28;;
2416;SDS011;1219;48.736;9.330;2023-06-10T15:23:29;3.03;;;2.85;;
2416;SDS011;1219;48.736;9.330;2023-06-10T15:25:55;3.33;;;3.13;;
2416;SDS011;1219;48.736;9.330;2023-06-10T15:28:22;3.13;;;2.92;;
2416;SDS011;1219;48.736;9.330;2023-06-10T15:30:48;3.38;;;3.17;;
2416;SDS011;1219;48.736;9.330;2023-06-10T15:33:14;3.28;;;3.03;;
2416;SDS011;1219;48.736;9.330;2023-06-10T15:35:40;2.60;;;2.50;;